Time;durP1;ratioP1;P1;durP2;ratioP2;P2;SDS_P1;SDS_P2;PMS_P1;PMS_P2;Temp;Humidity;BMP_temperature;BMP_pressure;BME280_temperature;BME280_humidity;BME280_pressure;Samples;Min_cycle;Max_cycle;Signal;HPM_P1;HPM_P2
2021/08/10 00:01:06;;;;;;;0.75;0.52;;;;;;;;;;3586415;40;20059;-66
2021/08/10 00:03:32;;;;;;;0.90;0.68;;;;;;;;;;3585823;40;20052;-67
2021/08/10 00:05:57;;;;;;;1.35;0.95;;;;;;;;;;3586540;40;20028;-66
2021/08/10 00:08:23;;;;;;;1.35;0.95;;;;;;;;;;3587111;40;20118;-66
2021/08/10 00:10:50;;;;;;;1.00;0.70;;;;;;;;;;3586788;40;20155;-67
2021/08/10 00:13:18;;;;;;;1.73;0.98;;;;;;;;;;3586602;40;20095;-66
2021/08/10 00:15:43;;;;;;;0.82;0.63;;;;;;;;;;3586592;40;20047;-67
2021/08/10 00:18:09;;;;;;;0.82;0.60;;;;;;;;;;3586804;40;20610;-67
2021/08/10 00:20:35;;;;;;;0.98;0.70;;;;;;;;;;3584780;40;20021;-67
2021/08/10 00:23:01;;;;;;;1.42;1.10;;;;;;;;;;3586780;40;20370;-66
2021/08/10 00:25:27;;;;;;;1.08;0.70;;;;;;;;;;3586422;40;20040;-65
2021/08/10 00:27:52;;;;;;;0.77;0.55;;;;;;;;;;3586059;40;20559;-66
2021/08/10 00:30:18;;;;;;;1.25;0.80;;;;;;;;;;3586504;40;20032;-67
2021/08/10 00:32:43;;;;;;;0.70;0.55;;;;;;;;;;3586417;40;20253;-66
2021/08/10 00:35:09;;;;;;;1.45;0.82;;;;;;;;;;3586375;40;20025;-66
2021/08/10 00:37:34;;;;;;;0.80;0.63;;;;;;;;;;3586087;40;20044;-66
2021/08/10 00:40:00;;;;;;;1.02;0.70;;;;;;;;;;3586662;40;20133;-66
2021/08/10 00:42:25;;;;;;;0.65;0.52;;;;;;;;;;3586548;40;20032;-65
2021/08/10 00:44:51;;;;;;;1.48;0.93;;;;;;;;;;3586615;40;20067;-67
2021/08/10 00:47:17;;;;;;;1.08;0.80;;;;;;;;;;3581707;40;20037;-66
2021/08/10 00:49:42;;;;;;;0.85;0.65;;;;;;;;;;3585770;40;20037;-67
2021/08/10 00:52:08;;;;;;;1.35;0.85;;;;;;;;;;3586853;40;20024;-66
2021/08/10 00:54:33;;;;;;;0.90;0.70;;;;;;;;;;3586845;40;20040;-66
2021/08/10 00:56:59;;;;;;;0.50;0.43;;;;;;;;;;3584918;40;20094;-66
2021/08/10 00:59:25;;;;;;;1.13;0.80;;;;;;;;;;3586556;40;20276;-66
2021/08/10 01:01:51;;;;;;;0.77;0.60;;;;;;;;;;3586611;40;20040;-65
2021/08/10 01:04:16;;;;;;;0.85;0.60;;;;;;;;;;3584899;40;20284;-66
2021/08/10 01:07:13;;;;;;;1.92;1.20;;;;;;;;;;3584680;40;20037;-66
2021/08/10 01:09:47;;;;;;;0.95;0.65;;;;;;;;;;3586054;40;20153;-66
2021/08/10 01:12:20;;;;;;;1.23;0.82;;;;;;;;;;3585901;40;20159;-67
2021/08/10 01:15:06;;;;;;;1.67;0.85;;;;;;;;;;3585350;40;20466;-66
2021/08/10 01:17:38;;;;;;;5.00;1.17;;;;;;;;;;3586743;40;20059;-66
2021/08/10 01:20:43;;;;;;;1.60;0.85;;;;;;;;;;3586141;40;20047;-65
2021/08/10 01:23:12;;;;;;;1.05;0.70;;;;;;;;;;3585996;40;20068;-67
2021/08/10 01:25:49;;;;;;;0.60;0.50;;;;;;;;;;3586311;40;20032;-66
2021/08/10 01:28:52;;;;;;;1.27;0.85;;;;;;;;;;3586596;40;20068;-67
2021/08/10 01:31:26;;;;;;;0.73;0.50;;;;;;;;;;3586179;40;20036;-66
2021/08/10 01:33:57;;;;;;;1.95;0.70;;;;;;;;;;3585121;40;20044;-65
2021/08/10 01:36:23;;;;;;;1.48;0.88;;;;;;;;;;3584916;40;20043;-67
2021/08/10 01:38:54;;;;;;;0.90;0.70;;;;;;;;;;3585528;40;20571;-66
2021/08/10 01:41:20;;;;;;;;;;;;;;;;;;3585612;40;20415;-67
2021/08/10 01:43:47;;;;;;;1.27;0.90;;;;;;;;;;3584146;40;19935;-66
2021/08/10 01:46:13;;;;;;;0.88;0.57;;;;;;;;;;3586085;40;20029;-66
2021/08/10 01:48:40;;;;;;;0.80;0.60;;;;;;;;;;3584688;40;20051;-66
2021/08/10 01:51:06;;;;;;;1.13;0.75;;;;;;;;;;3586423;40;20049;-66
2021/08/10 01:53:33;;;;;;;1.65;0.90;;;;;;;;;;3586742;40;20383;-65
2021/08/10 01:55:59;;;;;;;1.48;0.75;;;;;;;;;;3585730;40;20080;-66
2021/08/10 01:58:25;;;;;;;0.80;0.57;;;;;;;;;;3584719;40;20117;-66
2021/08/10 02:00:52;;;;;;;1.00;0.68;;;;;;;;;;3587671;40;20074;-67
2021/08/10 02:03:19;;;;;;;0.80;0.60;;;;;;;;;;3586818;40;20113;-66
2021/08/10 02:05:46;;;;;;;0.93;0.70;;;;;;;;;;3587920;40;20036;-67
2021/08/10 02:08:13;;;;;;;1.30;0.88;;;;;;;;;;3587492;40;20146;-68
2021/08/10 02:10:40;;;;;;;1.00;0.70;;;;;;;;;;3587778;40;20059;-67
2021/08/10 02:13:06;;;;;;;0.77;0.60;;;;;;;;;;3587734;40;20033;-67
2021/08/10 02:15:32;;;;;;;1.45;1.02;;;;;;;;;;3587642;40;20033;-67
2021/08/10 02:17:58;;;;;;;2.70;1.13;;;;;;;;;;3586914;40;20040;-66
2021/08/10 02:20:23;;;;;;;1.23;0.90;;;;;;;;;;3587073;40;20033;-66
2021/08/10 02:22:50;;;;;;;3.10;0.80;;;;;;;;;;3587347;40;20037;-67
2021/08/10 02:25:22;;;;;;;0.80;0.60;;;;;;;;;;3587312;40;20139;-66
2021/08/10 02:27:51;;;;;;;1.25;0.80;;;;;;;;;;3587632;40;20740;-66
2021/08/10 02:30:20;;;;;;;1.02;0.70;;;;;;;;;;3587906;40;20040;-67
2021/08/10 02:32:48;;;;;;;1.15;0.75;;;;;;;;;;3586474;40;20094;-68
2021/08/10 02:35:20;;;;;;;0.68;0.55;;;;;;;;;;3585909;40;20071;-67
2021/08/10 02:37:47;;;;;;;0.68;0.57;;;;;;;;;;3586126;40;20121;-68
2021/08/10 02:40:16;;;;;;;1.48;0.85;;;;;;;;;;3587532;40;20037;-67
2021/08/10 02:42:43;;;;;;;1.05;0.75;;;;;;;;;;3585750;40;20049;-67
2021/08/10 02:45:10;;;;;;;1.05;0.82;;;;;;;;;;3586128;40;20037;-68
2021/08/10 02:47:36;;;;;;;1.48;1.05;;;;;;;;;;3586870;40;20033;-67
2021/08/10 02:50:02;;;;;;;0.90;0.70;;;;;;;;;;3587119;40;20077;-67
2021/08/10 02:52:27;;;;;;;1.77;0.85;;;;;;;;;;3586949;40;20044;-67
2021/08/10 02:54:52;;;;;;;1.15;0.73;;;;;;;;;;3583672;40;20025;-67
2021/08/10 02:57:36;;;;;;;0.82;0.65;;;;;;;;;;3587144;40;20376;-67
2021/08/10 03:00:06;;;;;;;1.00;0.70;;;;;;;;;;3587365;40;20386;-67
2021/08/10 03:02:46;;;;;;;1.13;0.77;;;;;;;;;;3586370;40;20040;-67
2021/08/10 03:05:23;;;;;;;0.63;0.50;;;;;;;;;;3587247;40;20133;-67
2021/08/10 03:07:54;;;;;;;1.27;0.88;;;;;;;;;;3586903;40;20129;-67
2021/08/10 03:10:21;;;;;;;1.60;0.68;;;;;;;;;;3585195;40;20040;-67
2021/08/10 03:12:49;;;;;;;0.70;0.60;;;;;;;;;;3586198;40;20047;-67
2021/08/10 03:15:20;;;;;;;2.53;0.93;;;;;;;;;;3587265;40;20039;-67
2021/08/10 03:17:46;;;;;;;0.57;0.50;;;;;;;;;;3587147;40;20036;-67
2021/08/10 03:20:15;;;;;;;0.63;0.52;;;;;;;;;;3586815;40;20133;-67
2021/08/10 03:22:43;;;;;;;0.88;0.68;;;;;;;;;;3587120;40;20037;-67
2021/08/10 03:25:12;;;;;;;0.68;0.63;;;;;;;;;;3586530;40;20057;-67
2021/08/10 03:27:37;;;;;;;1.33;0.93;;;;;;;;;;3586479;40;20141;-68
2021/08/10 03:30:04;;;;;;;0.80;0.60;;;;;;;;;;3586306;40;20036;-67
2021/08/10 03:32:32;;;;;;;1.00;0.70;;;;;;;;;;3586858;40;20033;-67
2021/08/10 03:34:59;;;;;;;0.73;0.60;;;;;;;;;;3586447;40;20040;-68
2021/08/10 03:37:25;;;;;;;6.38;0.85;;;;;;;;;;3585812;40;20385;-67
2021/08/10 03:39:53;;;;;;;0.95;0.60;;;;;;;;;;3587117;40;20043;-68
2021/08/10 03:42:19;;;;;;;1.23;0.68;;;;;;;;;;3587146;40;20040;-68
2021/08/10 03:44:45;;;;;;;0.70;0.60;;;;;;;;;;3587091;40;20121;-67
2021/08/10 03:47:12;;;;;;;0.98;0.77;;;;;;;;;;3585950;40;20360;-67
2021/08/10 03:49:38;;;;;;;0.77;0.60;;;;;;;;;;3586692;40;20029;-67
2021/08/10 03:52:04;;;;;;;0.80;0.60;;;;;;;;;;3585670;40;20049;-67
2021/08/10 03:54:30;;;;;;;0.98;0.80;;;;;;;;;;3586656;40;20055;-67
2021/08/10 03:56:57;;;;;;;1.10;0.98;;;;;;;;;;3586227;40;20044;-68
2021/08/10 03:59:23;;;;;;;3.33;0.85;;;;;;;;;;3587210;40;20133;-67
2021/08/10 04:01:51;;;;;;;1.50;0.98;;;;;;;;;;3586669;40;20033;-68
2021/08/10 04:04:18;;;;;;;0.77;0.57;;;;;;;;;;3585587;40;20052;-68
2021/08/10 04:06:44;;;;;;;0.85;0.65;;;;;;;;;;3585470;40;20036;-69
2021/08/10 04:09:10;;;;;;;0.63;0.50;;;;;;;;;;3586498;40;20111;-68
2021/08/10 04:11:40;;;;;;;1.02;0.75;;;;;;;;;;3585909;40;20146;-67
2021/08/10 04:14:09;;;;;;;0.85;0.63;;;;;;;;;;3586660;40;20041;-67
2021/08/10 04:16:56;;;;;;;1.65;0.90;;;;;;;;;;3586666;40;20082;-69
2021/08/10 04:19:27;;;;;;;0.77;0.57;;;;;;;;;;3586601;40;20044;-68
2021/08/10 04:21:53;;;;;;;2.45;1.42;;;;;;;;;;3585627;40;20064;-68
2021/08/10 04:24:18;;;;;;;2.00;1.05;;;;;;;;;;3585389;40;20041;-67
2021/08/10 04:26:44;;;;;;;1.13;0.80;;;;;;;;;;3586803;40;20113;-68
2021/08/10 04:29:09;;;;;;;0.40;0.40;;;;;;;;;;3586663;40;20315;-67
2021/08/10 04:31:34;;;;;;;0.90;0.63;;;;;;;;;;3586628;40;20044;-68
2021/08/10 04:34:00;;;;;;;1.33;0.90;;;;;;;;;;3586852;40;20420;-68
2021/08/10 04:36:25;;;;;;;0.60;0.40;;;;;;;;;;3585924;40;20217;-68
2021/08/10 04:38:51;;;;;;;0.77;0.60;;;;;;;;;;3585945;40;20051;-68
2021/08/10 04:41:16;;;;;;;0.80;0.65;;;;;;;;;;3585927;40;20044;-68
2021/08/10 04:43:41;;;;;;;0.57;0.50;;;;;;;;;;3586148;40;20064;-68
2021/08/10 04:46:07;;;;;;;0.52;0.40;;;;;;;;;;3585780;40;20151;-68
2021/08/10 04:48:32;;;;;;;0.93;0.63;;;;;;;;;;3586252;40;20033;-69
2021/08/10 04:50:57;;;;;;;1.00;0.75;;;;;;;;;;3586804;40;20064;-69
2021/08/10 04:53:23;;;;;;;1.17;0.90;;;;;;;;;;3586645;40;20052;-68
2021/08/10 04:55:49;;;;;;;2.05;0.70;;;;;;;;;;3586032;40;20044;-68
2021/08/10 04:58:14;;;;;;;1.30;0.90;;;;;;;;;;3586306;40;20060;-68
2021/08/10 05:00:40;;;;;;;1.25;0.75;;;;;;;;;;3590311;40;20387;-68
2021/08/10 05:03:05;;;;;;;0.75;0.57;;;;;;;;;;3585403;40;20389;-68
2021/08/10 05:05:30;;;;;;;0.90;0.60;;;;;;;;;;3585444;40;20037;-68
2021/08/10 05:07:56;;;;;;;1.10;0.80;;;;;;;;;;3585721;40;20047;-68
2021/08/10 05:10:21;;;;;;;1.05;0.70;;;;;;;;;;3583569;40;20048;-68
2021/08/10 05:12:47;;;;;;;1.45;0.98;;;;;;;;;;3584452;40;20036;-68
2021/08/10 05:15:12;;;;;;;2.40;1.10;;;;;;;;;;3585731;40;20033;-67
2021/08/10 05:17:38;;;;;;;2.40;1.10;;;;;;;;;;3585790;40;20080;-67
2021/08/10 05:20:04;;;;;;;1.25;0.90;;;;;;;;;;3586109;40;20068;-67
2021/08/10 05:22:29;;;;;;;1.35;0.93;;;;;;;;;;3583748;40;20024;-66
2021/08/10 05:24:55;;;;;;;1.25;0.80;;;;;;;;;;3585564;40;20028;-67
2021/08/10 05:27:20;;;;;;;0.68;0.52;;;;;;;;;;3586118;40;20036;-68
2021/08/10 05:29:46;;;;;;;0.98;0.80;;;;;;;;;;3587504;40;20403;-68
2021/08/10 05:32:11;;;;;;;1.50;0.75;;;;;;;;;;3585701;40;20085;-68
2021/08/10 05:34:38;;;;;;;1.00;0.70;;;;;;;;;;3585971;40;20040;-67
2021/08/10 05:37:04;;;;;;;0.80;0.60;;;;;;;;;;3586034;40;20033;-68
2021/08/10 05:39:29;;;;;;;1.10;0.70;;;;;;;;;;3584477;40;20122;-68
2021/08/10 05:41:54;;;;;;;0.65;0.52;;;;;;;;;;3585212;40;20032;-68
2021/08/10 05:44:20;;;;;;;0.85;0.60;;;;;;;;;;3584390;40;20553;-66
2021/08/10 05:46:45;;;;;;;1.23;0.75;;;;;;;;;;3583715;40;20029;-67
2021/08/10 05:49:11;;;;;;;0.90;0.60;;;;;;;;;;3583529;40;20040;-67
2021/08/10 05:51:37;;;;;;;1.45;1.02;;;;;;;;;;3584707;40;20953;-68
2021/08/10 05:54:02;;;;;;;1.83;1.13;;;;;;;;;;3585263;40;20078;-67
2021/08/10 05:56:28;;;;;;;1.23;0.85;;;;;;;;;;3586476;40;20369;-67
2021/08/10 05:58:53;;;;;;;1.70;0.98;;;;;;;;;;3584346;40;20258;-68
2021/08/10 06:01:18;;;;;;;1.38;0.80;;;;;;;;;;3585848;40;20045;-68
2021/08/10 06:03:44;;;;;;;0.90;0.70;;;;;;;;;;3584029;40;20037;-69
2021/08/10 06:06:09;;;;;;;1.60;1.02;;;;;;;;;;3584664;40;20032;-70
2021/08/10 06:08:35;;;;;;;2.35;0.93;;;;;;;;;;3585315;40;20358;-70
2021/08/10 06:11:00;;;;;;;1.00;0.65;;;;;;;;;;3586175;40;20123;-69
2021/08/10 06:13:26;;;;;;;0.75;0.57;;;;;;;;;;3586040;40;20065;-69
2021/08/10 06:15:51;;;;;;;0.90;0.70;;;;;;;;;;3584636;40;20032;-68
2021/08/10 06:18:17;;;;;;;0.98;0.70;;;;;;;;;;3584324;40;20029;-68
2021/08/10 06:20:43;;;;;;;1.23;0.90;;;;;;;;;;3584475;40;20113;-68
2021/08/10 06:23:08;;;;;;;1.00;0.80;;;;;;;;;;3585173;40;20025;-68
2021/08/10 06:25:35;;;;;;;2.35;1.00;;;;;;;;;;3583301;40;20121;-67
2021/08/10 06:28:00;;;;;;;1.00;0.75;;;;;;;;;;3581914;40;20059;-68
2021/08/10 06:30:25;;;;;;;1.45;0.95;;;;;;;;;;3583707;40;20037;-68
2021/08/10 06:32:51;;;;;;;2.67;1.08;;;;;;;;;;3583223;40;20116;-67
2021/08/10 06:35:16;;;;;;;1.38;1.00;;;;;;;;;;3581717;40;20036;-67
2021/08/10 06:37:42;;;;;;;1.17;0.85;;;;;;;;;;3583478;40;20045;-68
2021/08/10 06:40:08;;;;;;;1.20;0.85;;;;;;;;;;3582532;40;20040;-68
2021/08/10 06:42:33;;;;;;;0.95;0.73;;;;;;;;;;3583701;40;20032;-67
2021/08/10 06:45:00;;;;;;;1.65;1.05;;;;;;;;;;3585175;40;20040;-68
2021/08/10 06:47:25;;;;;;;1.23;0.93;;;;;;;;;;3586292;40;20028;-68
2021/08/10 06:49:51;;;;;;;2.83;1.48;;;;;;;;;;3587400;40;20122;-67
2021/08/10 06:52:16;;;;;;;1.98;0.93;;;;;;;;;;3587008;40;20029;-68
2021/08/10 06:54:42;;;;;;;1.15;0.77;;;;;;;;;;3586126;40;20074;-68
2021/08/10 06:57:09;;;;;;;0.95;0.60;;;;;;;;;;3586947;40;20037;-69
2021/08/10 06:59:35;;;;;;;1.40;0.90;;;;;;;;;;3584442;40;20045;-60
2021/08/10 07:02:01;;;;;;;1.27;0.82;;;;;;;;;;3585885;40;20033;-59
2021/08/10 07:04:26;;;;;;;1.30;0.93;;;;;;;;;;3584544;40;20048;-60
2021/08/10 07:06:52;;;;;;;0.63;0.55;;;;;;;;;;3585971;40;20121;-60
2021/08/10 07:09:17;;;;;;;1.00;0.60;;;;;;;;;;3586472;40;20045;-60
2021/08/10 07:11:43;;;;;;;1.70;1.05;;;;;;;;;;3586872;40;20036;-60
2021/08/10 07:14:11;;;;;;;1.42;1.02;;;;;;;;;;3586827;40;20265;-60
2021/08/10 07:16:41;;;;;;;1.13;0.80;;;;;;;;;;3586666;40;20051;-60
2021/08/10 07:19:06;;;;;;;1.45;0.95;;;;;;;;;;3585239;40;20043;-60
2021/08/10 07:21:32;;;;;;;1.88;1.10;;;;;;;;;;3587303;40;20024;-60
2021/08/10 07:23:57;;;;;;;2.38;0.95;;;;;;;;;;3585522;40;20047;-60
2021/08/10 07:26:23;;;;;;;1.67;0.93;;;;;;;;;;3583834;40;20146;-60
2021/08/10 07:28:48;;;;;;;0.80;0.63;;;;;;;;;;3583710;40;20117;-60
2021/08/10 07:31:14;;;;;;;1.20;0.88;;;;;;;;;;3585918;40;20056;-60
2021/08/10 07:33:39;;;;;;;0.95;0.70;;;;;;;;;;3583335;40;20048;-60
2021/08/10 07:36:05;;;;;;;1.00;0.75;;;;;;;;;;3585826;40;20041;-59
2021/08/10 07:38:30;;;;;;;1.27;0.80;;;;;;;;;;3587282;40;20077;-60
2021/08/10 07:40:56;;;;;;;1.95;0.95;;;;;;;;;;3584978;40;20059;-59
2021/08/10 07:43:21;;;;;;;1.95;1.38;;;;;;;;;;3586600;40;20028;-59
2021/08/10 07:45:47;;;;;;;1.48;0.85;;;;;;;;;;3585957;40;20044;-59
2021/08/10 07:48:12;;;;;;;1.55;1.15;;;;;;;;;;3585544;40;20081;-59
2021/08/10 07:50:38;;;;;;;1.00;0.70;;;;;;;;;;3585218;40;20036;-59
2021/08/10 07:53:03;;;;;;;1.02;0.73;;;;;;;;;;3586949;40;20067;-59
2021/08/10 07:55:29;;;;;;;1.35;0.95;;;;;;;;;;3586438;40;20064;-59
2021/08/10 07:57:54;;;;;;;1.38;0.90;;;;;;;;;;3586136;40;20040;-60
2021/08/10 08:00:20;;;;;;;3.08;1.67;;;;;;;;;;3586041;40;20077;-59
2021/08/10 08:02:45;;;;;;;1.48;1.13;;;;;;;;;;3584535;40;20039;-59
2021/08/10 08:05:11;;;;;;;1.27;0.80;;;;;;;;;;3584811;40;20440;-59
2021/08/10 08:07:36;;;;;;;0.75;0.50;;;;;;;;;;3583447;40;20053;-59
2021/08/10 08:10:02;;;;;;;1.27;0.82;;;;;;;;;;3584474;40;20501;-59
2021/08/10 08:12:27;;;;;;;1.35;0.80;;;;;;;;;;3581720;40;20037;-59
2021/08/10 08:14:53;;;;;;;0.60;0.50;;;;;;;;;;3581914;40;20516;-59
2021/08/10 08:17:18;;;;;;;1.85;1.02;;;;;;;;;;3585440;40;20036;-60
2021/08/10 08:19:44;;;;;;;1.35;0.85;;;;;;;;;;3587099;40;20039;-59
2021/08/10 08:22:09;;;;;;;1.40;0.82;;;;;;;;;;3586580;40;20029;-60
2021/08/10 08:24:34;;;;;;;0.70;0.60;;;;;;;;;;3585147;40;20087;-60
2021/08/10 08:27:00;;;;;;;1.42;0.98;;;;;;;;;;3586289;40;20133;-60
2021/08/10 08:29:25;;;;;;;0.98;0.70;;;;;;;;;;3586921;40;20025;-60
2021/08/10 08:31:50;;;;;;;1.33;1.00;;;;;;;;;;3587102;40;20047;-60
2021/08/10 08:34:16;;;;;;;3.00;1.35;;;;;;;;;;3586764;40;20134;-60
2021/08/10 08:36:42;;;;;;;1.67;1.10;;;;;;;;;;3586043;40;20051;-60
2021/08/10 08:39:08;;;;;;;1.08;0.80;;;;;;;;;;3583730;40;20095;-60
2021/08/10 08:41:33;;;;;;;1.77;1.17;;;;;;;;;;3585439;40;20174;-60
2021/08/10 08:43:59;;;;;;;2.30;1.42;;;;;;;;;;3582380;40;20052;-60
2021/08/10 08:46:24;;;;;;;1.40;1.02;;;;;;;;;;3577921;40;20324;-60
2021/08/10 08:48:51;;;;;;;1.33;1.00;;;;;;;;;;3580556;40;20025;-60
2021/08/10 08:51:23;;;;;;;1.35;0.90;;;;;;;;;;3581377;40;20055;-60
2021/08/10 08:53:53;;;;;;;0.90;0.77;;;;;;;;;;3580488;40;20064;-60
2021/08/10 08:56:24;;;;;;;1.55;1.13;;;;;;;;;;3583191;40;20489;-59
2021/08/10 08:58:54;;;;;;;1.08;0.82;;;;;;;;;;3582508;40;20186;-59
2021/08/10 09:01:20;;;;;;;1.48;1.00;;;;;;;;;;3581657;40;20044;-59
2021/08/10 09:03:46;;;;;;;1.95;0.93;;;;;;;;;;3582853;40;20033;-59
2021/08/10 09:06:11;;;;;;;1.17;0.98;;;;;;;;;;3583094;40;20039;-60
2021/08/10 09:08:45;;;;;;;1.00;0.80;;;;;;;;;;3581990;40;20695;-60
2021/08/10 09:11:17;;;;;;;1.23;0.95;;;;;;;;;;3581603;40;20249;-59
2021/08/10 09:13:59;;;;;;;1.52;1.08;;;;;;;;;;3590160;39;20261;-60
2021/08/10 09:16:25;;;;;;;1.30;0.90;;;;;;;;;;3584672;40;20044;-59
2021/08/10 09:18:51;;;;;;;1.67;1.05;;;;;;;;;;3584369;40;20304;-60
2021/08/10 09:21:20;;;;;;;1.73;1.10;;;;;;;;;;3582626;40;20364;-60
2021/08/10 09:23:53;;;;;;;0.97;0.73;;;;;;;;;;3583458;40;20150;-60
2021/08/10 09:26:23;;;;;;;1.25;0.90;;;;;;;;;;3582330;40;20033;-59
2021/08/10 09:28:54;;;;;;;1.05;0.80;;;;;;;;;;3581882;40;20036;-59
2021/08/10 09:31:32;;;;;;;1.27;0.98;;;;;;;;;;3583285;40;20031;-60
2021/08/10 09:34:00;;;;;;;1.40;1.00;;;;;;;;;;3582941;40;20076;-60
2021/08/10 09:36:26;;;;;;;1.42;1.02;;;;;;;;;;3581914;40;20056;-59
2021/08/10 09:38:52;;;;;;;1.00;0.80;;;;;;;;;;3583231;40;20045;-59
2021/08/10 09:41:17;;;;;;;2.22;1.38;;;;;;;;;;3583936;40;20134;-60
2021/08/10 09:43:43;;;;;;;1.15;1.02;;;;;;;;;;3580456;40;20048;-60
2021/08/10 09:46:15;;;;;;;1.08;0.82;;;;;;;;;;3582230;40;20056;-60
2021/08/10 09:48:55;;;;;;;1.45;1.05;;;;;;;;;;3583364;40;20037;-60
2021/08/10 09:51:23;;;;;;;1.13;0.85;;;;;;;;;;3583418;40;20028;-60
2021/08/10 09:54:01;;;;;;;0.93;0.70;;;;;;;;;;3583836;40;20037;-59
2021/08/10 09:56:51;;;;;;;1.95;1.10;;;;;;;;;;3585223;40;20580;-59
2021/08/10 09:59:27;;;;;;;1.50;0.80;;;;;;;;;;3585740;40;20048;-59
2021/08/10 10:01:59;;;;;;;1.52;1.02;;;;;;;;;;3585590;40;20576;-60
2021/08/10 10:04:28;;;;;;;2.00;1.40;;;;;;;;;;3582461;40;20036;-60
2021/08/10 10:07:10;;;;;;;1.00;0.80;;;;;;;;;;3583419;40;20060;-60
2021/08/10 10:09:37;;;;;;;0.88;0.80;;;;;;;;;;3584214;40;20525;-59
2021/08/10 10:12:04;;;;;;;1.55;1.10;;;;;;;;;;3583739;40;20063;-59
2021/08/10 10:14:30;;;;;;;1.08;0.77;;;;;;;;;;3585284;40;20029;-59
2021/08/10 10:16:57;;;;;;;1.90;1.33;;;;;;;;;;3584985;40;20029;-59
2021/08/10 10:19:23;;;;;;;1.55;1.10;;;;;;;;;;3584774;40;20044;-59
2021/08/10 10:21:55;;;;;;;1.10;0.90;;;;;;;;;;3586833;40;20044;-59
2021/08/10 10:24:22;;;;;;;1.58;1.08;;;;;;;;;;3586723;40;20037;-59
2021/08/10 10:27:10;;;;;;;1.17;0.90;;;;;;;;;;3584924;40;22991;-59
2021/08/10 10:29:37;;;;;;;1.50;1.00;;;;;;;;;;3585024;40;20125;-59
2021/08/10 10:32:02;;;;;;;2.00;1.10;;;;;;;;;;3584909;40;20137;-59
2021/08/10 10:34:30;;;;;;;1.60;1.10;;;;;;;;;;3584691;40;20840;-59
2021/08/10 10:36:57;;;;;;;1.17;0.90;;;;;;;;;;3585267;40;20032;-59
2021/08/10 10:39:31;;;;;;;1.80;1.20;;;;;;;;;;3585916;40;20037;-59
2021/08/10 10:41:59;;;;;;;1.55;1.13;;;;;;;;;;3585816;40;20041;-59
2021/08/10 10:44:40;;;;;;;1.45;1.02;;;;;;;;;;3586007;40;20036;-60
2021/08/10 10:47:21;;;;;;;1.55;1.25;;;;;;;;;;3585477;40;20053;-59
2021/08/10 10:49:55;;;;;;;2.00;1.02;;;;;;;;;;3585161;40;20059;-60
2021/08/10 10:52:25;;;;;;;1.13;0.95;;;;;;;;;;3584410;40;20268;-59
2021/08/10 10:54:52;;;;;;;1.83;1.33;;;;;;;;;;3585479;40;20041;-60
2021/08/10 10:57:30;;;;;;;2.25;1.48;;;;;;;;;;3586435;40;20032;-60
2021/08/10 11:00:21;;;;;;;1.40;1.10;;;;;;;;;;3585634;40;20239;-60
2021/08/10 11:03:10;;;;;;;2.38;1.70;;;;;;;;;;3586015;40;20036;-60
2021/08/10 11:05:36;;;;;;;1.42;1.00;;;;;;;;;;3586583;40;20241;-59
2021/08/10 11:08:03;;;;;;;1.95;1.30;;;;;;;;;;3586659;40;20130;-60
2021/08/10 11:10:46;;;;;;;1.88;1.20;;;;;;;;;;3586731;40;20040;-60
2021/08/10 11:13:21;;;;;;;2.42;1.80;;;;;;;;;;3585139;40;20095;-60
2021/08/10 11:15:46;;;;;;;1.90;1.40;;;;;;;;;;3586110;40;20040;-60
2021/08/10 11:18:12;;;;;;;2.92;1.70;;;;;;;;;;3586142;40;20068;-60
2021/08/10 11:20:39;;;;;;;2.03;1.33;;;;;;;;;;3586477;40;20036;-60
2021/08/10 11:23:20;;;;;;;2.25;1.58;;;;;;;;;;3585600;40;20589;-60
2021/08/10 11:26:08;;;;;;;2.42;1.60;;;;;;;;;;3583804;40;20282;-60
2021/08/10 11:28:44;;;;;;;2.35;1.33;;;;;;;;;;3583024;40;20028;-60
2021/08/10 11:31:11;;;;;;;2.35;1.60;;;;;;;;;;3584446;40;20028;-60
2021/08/10 11:33:41;;;;;;;3.13;1.67;;;;;;;;;;3584499;40;20041;-60
2021/08/10 11:36:10;;;;;;;2.28;1.80;;;;;;;;;;3584270;40;20155;-60
2021/08/10 11:38:45;;;;;;;2.15;1.58;;;;;;;;;;3584909;40;20565;-59
2021/08/10 11:41:34;;;;;;;1.50;1.15;;;;;;;;;;3584663;40;20379;-59
2021/08/10 11:44:02;;;;;;;3.22;1.77;;;;;;;;;;3583460;40;20032;-59
2021/08/10 11:46:33;;;;;;;2.00;1.52;;;;;;;;;;3585967;40;20090;-59
2021/08/10 11:49:00;;;;;;;1.60;1.15;;;;;;;;;;3585218;40;20029;-59
2021/08/10 11:51:40;;;;;;;1.85;1.42;;;;;;;;;;3584504;40;20098;-59
2021/08/10 11:54:26;;;;;;;1.83;1.35;;;;;;;;;;3586929;40;20292;-60
2021/08/10 11:56:55;;;;;;;3.95;1.92;;;;;;;;;;3585198;40;20061;-59
2021/08/10 11:59:25;;;;;;;2.30;1.50;;;;;;;;;;3585939;40;20073;-59
2021/08/10 12:01:53;;;;;;;2.22;1.67;;;;;;;;;;3586144;40;20025;-58
2021/08/10 12:04:21;;;;;;;1.90;1.48;;;;;;;;;;3586261;40;20368;-59
2021/08/10 12:06:48;;;;;;;2.15;1.70;;;;;;;;;;3584965;40;20184;-59
2021/08/10 12:09:19;;;;;;;2.17;1.67;;;;;;;;;;3586045;40;20051;-59
2021/08/10 12:11:51;;;;;;;1.95;1.50;;;;;;;;;;3586602;40;20487;-58
2021/08/10 12:14:19;;;;;;;2.85;2.13;;;;;;;;;;3583939;40;20295;-59
2021/08/10 12:17:04;;;;;;;3.42;2.03;;;;;;;;;;3584143;40;20053;-58
2021/08/10 12:19:38;;;;;;;2.20;1.70;;;;;;;;;;3584675;40;20072;-58
2021/08/10 12:22:19;;;;;;;2.13;1.52;;;;;;;;;;3585916;40;20032;-58
2021/08/10 12:24:45;;;;;;;2.00;1.50;;;;;;;;;;3585241;40;20025;-58
2021/08/10 12:27:14;;;;;;;2.05;1.40;;;;;;;;;;3585599;40;20051;-58
2021/08/10 12:29:41;;;;;;;2.10;1.50;;;;;;;;;;3586172;40;20049;-58
2021/08/10 12:32:09;;;;;;;2.83;1.92;;;;;;;;;;3586296;40;20040;-58
2021/08/10 12:34:40;;;;;;;1.80;1.30;;;;;;;;;;3586362;40;20036;-58
2021/08/10 12:37:07;;;;;;;4.53;1.55;;;;;;;;;;3586142;40;20039;-58
2021/08/10 12:39:42;;;;;;;2.40;1.65;;;;;;;;;;3586354;40;20072;-58
2021/08/10 12:42:09;;;;;;;1.95;1.38;;;;;;;;;;3584922;40;20044;-58
2021/08/10 12:44:35;;;;;;;2.47;1.70;;;;;;;;;;3585267;40;20232;-58
2021/08/10 12:47:04;;;;;;;2.97;1.85;;;;;;;;;;3585544;40;20035;-58
2021/08/10 12:49:40;;;;;;;1.90;1.42;;;;;;;;;;3584030;40;20388;-58
2021/08/10 12:52:18;;;;;;;3.65;2.00;;;;;;;;;;3584972;40;20047;-58
2021/08/10 12:54:46;;;;;;;2.30;1.90;;;;;;;;;;3586205;40;20039;-58
2021/08/10 12:57:26;;;;;;;2.50;1.80;;;;;;;;;;3593034;39;20048;-58
2021/08/10 12:59:54;;;;;;;3.30;1.80;;;;;;;;;;3585787;40;20033;-59
2021/08/10 13:02:43;;;;;;;3.65;2.33;;;;;;;;;;3584390;40;20041;-59
2021/08/10 13:05:10;;;;;;;3.00;2.03;;;;;;;;;;3583995;40;20036;-59
2021/08/10 13:07:41;;;;;;;2.53;1.90;;;;;;;;;;3583804;40;20046;-59
2021/08/10 13:10:12;;;;;;;2.40;1.75;;;;;;;;;;3583761;40;20118;-59
2021/08/10 13:12:57;;;;;;;2.15;1.52;;;;;;;;;;3582527;40;20044;-59
2021/08/10 13:15:23;;;;;;;2.95;2.03;;;;;;;;;;3581623;40;20080;-58
2021/08/10 13:17:49;;;;;;;2.20;1.70;;;;;;;;;;3582938;40;20149;-59
2021/08/10 13:20:19;;;;;;;2.67;2.03;;;;;;;;;;3584488;40;20040;-59
2021/08/10 13:22:47;;;;;;;2.47;2.03;;;;;;;;;;3583782;40;20044;-59
2021/08/10 13:25:21;;;;;;;3.85;2.38;;;;;;;;;;3585358;40;20048;-59
2021/08/10 13:27:47;;;;;;;2.40;2.00;;;;;;;;;;3586415;40;20573;-59
2021/08/10 13:30:23;;;;;;;2.60;2.05;;;;;;;;;;3585574;40;20091;-59
2021/08/10 13:33:14;;;;;;;2.55;2.08;;;;;;;;;;3584754;40;20273;-59
2021/08/10 13:35:39;;;;;;;2.88;1.80;;;;;;;;;;3584515;40;20041;-59
2021/08/10 13:38:05;;;;;;;3.40;1.98;;;;;;;;;;3583128;40;20052;-59
2021/08/10 13:40:32;;;;;;;2.58;1.88;;;;;;;;;;3584821;40;20036;-59
2021/08/10 13:42:57;;;;;;;2.53;2.00;;;;;;;;;;3585449;40;20060;-59
2021/08/10 13:45:24;;;;;;;2.50;1.77;;;;;;;;;;3585636;40;20043;-59
2021/08/10 13:47:51;;;;;;;2.17;1.70;;;;;;;;;;3582545;40;20067;-59
2021/08/10 13:50:17;;;;;;;2.47;1.85;;;;;;;;;;3585914;40;20028;-58
2021/08/10 13:52:43;;;;;;;2.70;2.30;;;;;;;;;;3584874;40;20410;-57
2021/08/10 13:55:09;;;;;;;2.45;1.92;;;;;;;;;;3585735;40;20048;-58
2021/08/10 13:57:34;;;;;;;2.83;2.20;;;;;;;;;;3587007;40;20044;-59
2021/08/10 14:00:00;;;;;;;2.55;2.10;;;;;;;;;;3586430;40;20047;-58
2021/08/10 14:02:25;;;;;;;2.60;2.15;;;;;;;;;;3586316;40;20071;-58
2021/08/10 14:04:50;;;;;;;2.80;2.15;;;;;;;;;;3586828;40;20106;-58
2021/08/10 14:07:18;;;;;;;3.22;2.47;;;;;;;;;;3586300;40;20395;-58
2021/08/10 14:09:43;;;;;;;2.30;1.98;;;;;;;;;;3585966;40;20064;-58
2021/08/10 14:12:08;;;;;;;3.35;2.28;;;;;;;;;;3587573;40;20047;-58
2021/08/10 14:14:34;;;;;;;2.70;2.15;;;;;;;;;;3587659;40;20122;-58
2021/08/10 14:16:59;;;;;;;2.33;1.92;;;;;;;;;;3586532;40;20142;-59
2021/08/10 14:19:25;;;;;;;4.28;2.42;;;;;;;;;;3587187;40;20545;-58
2021/08/10 14:21:51;;;;;;;2.92;2.28;;;;;;;;;;3586668;40;20146;-59
2021/08/10 14:24:16;;;;;;;3.20;2.72;;;;;;;;;;3587442;40;20035;-59
2021/08/10 14:26:41;;;;;;;2.80;2.05;;;;;;;;;;3586576;40;20033;-59
2021/08/10 14:29:07;;;;;;;2.75;2.13;;;;;;;;;;3585622;40;20030;-58
2021/08/10 14:31:33;;;;;;;3.20;2.25;;;;;;;;;;3587432;40;20129;-58
2021/08/10 14:33:58;;;;;;;2.97;2.58;;;;;;;;;;3587354;40;20025;-59
2021/08/10 14:36:24;;;;;;;2.83;2.28;;;;;;;;;;3587219;40;20039;-58
2021/08/10 14:38:49;;;;;;;2.83;2.30;;;;;;;;;;3587045;40;20171;-59
2021/08/10 14:41:14;;;;;;;2.33;1.90;;;;;;;;;;3587438;40;20033;-59
2021/08/10 14:43:40;;;;;;;2.63;2.08;;;;;;;;;;3587235;40;20025;-59
2021/08/10 14:46:06;;;;;;;2.75;2.20;;;;;;;;;;3587657;40;20033;-59
2021/08/10 14:48:32;;;;;;;3.00;2.28;;;;;;;;;;3586684;40;20387;-59
2021/08/10 14:50:58;;;;;;;4.25;3.00;;;;;;;;;;3586862;40;20028;-59